sensor_id;sensor_type;location;lat;lon;timestamp;P1;durP1;ratioP1;P2;durP2;ratioP2
23260;SDS011;11799;47.740;-3.390;2022-12-07T00:02:21;24.77;;;14.73;;
23260;SDS011;11799;47.740;-3.390;2022-12-07T00:04:48;24.33;;;14.90;;
23260;SDS011;11799;47.740;-3.390;2022-12-07T00:07:14;29.13;;;16.17;;
23260;SDS011;11799;47.740;-3.390;2022-12-07T00:09:40;24.70;;;15.18;;
23260;SDS011;11799;47.740;-3.390;2022-12-07T00:12:06;25.95;;;16.15;;
23260;SDS011;11799;47.740;-3.390;2022-12-07T00:14:33;28.65;;;16.40;;
23260;SDS011;11799;47.740;-3.390;2022-12-07T00:16:59;28.75;;;16.45;;
23260;SDS011;11799;47.740;-3.390;2022-12-07T00:19:24;27.02;;;15.57;;
23260;SDS011;11799;47.740;-3.390;2022-12-07T00:21:50;26.17;;;14.93;;
23260;SDS011;11799;47.740;-3.390;2022-12-07T00:24:15;23.63;;;15.05;;
23260;SDS011;11799;47.740;-3.390;2022-12-07T00:26:41;25.83;;;14.68;;
23260;SDS011;11799;47.740;-3.390;2022-12-07T00:29:29;29.63;;;15.75;;
23260;SDS011;11799;47.740;-3.390;2022-12-07T00:31:54;24.60;;;14.30;;
23260;SDS011;11799;47.740;-3.390;2022-12-07T00:34:20;25.73;;;14.32;;
23260;SDS011;11799;47.740;-3.390;2022-12-07T00:36:46;28.40;;;15.13;;
23260;SDS011;11799;47.740;-3.390;2022-12-07T00:39:12;28.45;;;14.75;;
23260;SDS011;11799;47.740;-3.390;2022-12-07T00:41:38;24.80;;;14.32;;
23260;SDS011;11799;47.740;-3.390;2022-12-07T00:44:04;28.55;;;15.23;;
23260;SDS011;11799;47.740;-3.390;2022-12-07T00:46:30;28.02;;;15.10;;
23260;SDS011;11799;47.740;-3.390;2022-12-07T00:48:55;25.45;;;14.85;;
23260;SDS011;11799;47.740;-3.390;2022-12-07T00:51:22;25.67;;;14.50;;
23260;SDS011;11799;47.740;-3.390;2022-12-07T00:53:50;27.85;;;15.07;;
23260;SDS011;11799;47.740;-3.390;2022-12-07T00:56:19;26.48;;;14.80;;
23260;SDS011;11799;47.740;-3.390;2022-12-07T01:01:18;25.08;;;14.27;;
23260;SDS011;11799;47.740;-3.390;2022-12-07T01:03:43;28.20;;;14.80;;
23260;SDS011;11799;47.740;-3.390;2022-12-07T01:06:09;26.63;;;15.07;;
23260;SDS011;11799;47.740;-3.390;2022-12-07T01:08:40;25.75;;;13.90;;
23260;SDS011;11799;47.740;-3.390;2022-12-07T01:11:06;28.15;;;14.60;;
23260;SDS011;11799;47.740;-3.390;2022-12-07T01:13:35;25.52;;;14.48;;
23260;SDS011;11799;47.740;-3.390;2022-12-07T01:16:02;27.95;;;15.18;;
23260;SDS011;11799;47.740;-3.390;2022-12-07T01:18:30;28.40;;;15.70;;
23260;SDS011;11799;47.740;-3.390;2022-12-07T01:21:14;25.10;;;14.65;;
23260;SDS011;11799;47.740;-3.390;2022-12-07T01:23:42;25.40;;;14.77;;
23260;SDS011;11799;47.740;-3.390;2022-12-07T01:26:13;26.92;;;14.60;;
23260;SDS011;11799;47.740;-3.390;2022-12-07T01:28:43;26.98;;;14.90;;
23260;SDS011;11799;47.740;-3.390;2022-12-07T01:31:09;27.88;;;14.52;;
23260;SDS011;11799;47.740;-3.390;2022-12-07T01:33:37;29.67;;;15.18;;
23260;SDS011;11799;47.740;-3.390;2022-12-07T01:38:50;25.38;;;14.13;;
23260;SDS011;11799;47.740;-3.390;2022-12-07T01:41:18;26.20;;;14.90;;
23260;SDS011;11799;47.740;-3.390;2022-12-07T01:47:02;23.30;;;14.00;;
23260;SDS011;11799;47.740;-3.390;2022-12-07T01:49:45;29.38;;;14.52;;
23260;SDS011;11799;47.740;-3.390;2022-12-07T01:54:47;24.70;;;13.80;;
23260;SDS011;11799;47.740;-3.390;2022-12-07T01:57:17;24.83;;;13.20;;
23260;SDS011;11799;47.740;-3.390;2022-12-07T01:59:45;23.83;;;13.80;;
23260;SDS011;11799;47.740;-3.390;2022-12-07T02:02:54;29.30;;;14.30;;
23260;SDS011;11799;47.740;-3.390;2022-12-07T02:05:03;27.35;;;13.50;;
23260;SDS011;11799;47.740;-3.390;2022-12-07T02:07:30;28.15;;;15.10;;
23260;SDS011;11799;47.740;-3.390;2022-12-07T02:09:57;22.00;;;12.68;;
23260;SDS011;11799;47.740;-3.390;2022-12-07T02:12:40;24.42;;;13.93;;
23260;SDS011;11799;47.740;-3.390;2022-12-07T02:15:06;26.85;;;14.18;;
23260;SDS011;11799;47.740;-3.390;2022-12-07T02:17:46;28.52;;;15.40;;
23260;SDS011;11799;47.740;-3.390;2022-12-07T02:28:07;26.50;;;14.32;;
23260;SDS011;11799;47.740;-3.390;2022-12-07T02:30:35;25.17;;;13.63;;
23260;SDS011;11799;47.740;-3.390;2022-12-07T02:33:13;23.42;;;13.73;;
23260;SDS011;11799;47.740;-3.390;2022-12-07T02:35:48;22.00;;;12.98;;
23260;SDS011;11799;47.740;-3.390;2022-12-07T02:44:17;24.90;;;12.95;;
23260;SDS011;11799;47.740;-3.390;2022-12-07T02:46:56;25.73;;;13.13;;
23260;SDS011;11799;47.740;-3.390;2022-12-07T02:49:30;24.77;;;13.60;;
23260;SDS011;11799;47.740;-3.390;2022-12-07T02:51:56;24.23;;;13.80;;
23260;SDS011;11799;47.740;-3.390;2022-12-07T02:54:22;21.23;;;11.68;;
23260;SDS011;11799;47.740;-3.390;2022-12-07T03:07:38;23.10;;;11.55;;
23260;SDS011;11799;47.740;-3.390;2022-12-07T03:10:20;21.42;;;12.50;;
23260;SDS011;11799;47.740;-3.390;2022-12-07T03:18:22;23.98;;;12.38;;
23260;SDS011;11799;47.740;-3.390;2022-12-07T03:20:51;23.88;;;11.52;;
23260;SDS011;11799;47.740;-3.390;2022-12-07T03:23:19;22.30;;;11.90;;
23260;SDS011;11799;47.740;-3.390;2022-12-07T03:25:47;24.73;;;12.52;;
23260;SDS011;11799;47.740;-3.390;2022-12-07T03:28:17;21.10;;;11.95;;
23260;SDS011;11799;47.740;-3.390;2022-12-07T03:30:47;21.58;;;12.52;;
23260;SDS011;11799;47.740;-3.390;2022-12-07T03:33:19;25.42;;;11.75;;
23260;SDS011;11799;47.740;-3.390;2022-12-07T03:36:00;21.17;;;11.80;;
23260;SDS011;11799;47.740;-3.390;2022-12-07T03:38:38;20.38;;;11.50;;
23260;SDS011;11799;47.740;-3.390;2022-12-07T03:41:24;23.40;;;12.85;;
23260;SDS011;11799;47.740;-3.390;2022-12-07T03:43:53;24.05;;;11.25;;
23260;SDS011;11799;47.740;-3.390;2022-12-07T03:49:06;19.23;;;10.95;;
23260;SDS011;11799;47.740;-3.390;2022-12-07T03:51:58;18.55;;;10.65;;
23260;SDS011;11799;47.740;-3.390;2022-12-07T03:54:33;21.23;;;11.38;;
23260;SDS011;11799;47.740;-3.390;2022-12-07T03:57:03;20.95;;;10.88;;
23260;SDS011;11799;47.740;-3.390;2022-12-07T03:59:30;19.23;;;10.82;;
23260;SDS011;11799;47.740;-3.390;2022-12-07T04:01:57;21.20;;;11.82;;
23260;SDS011;11799;47.740;-3.390;2022-12-07T04:04:28;19.75;;;10.98;;
23260;SDS011;11799;47.740;-3.390;2022-12-07T04:06:54;21.98;;;11.23;;
23260;SDS011;11799;47.740;-3.390;2022-12-07T04:09:19;19.25;;;10.80;;
23260;SDS011;11799;47.740;-3.390;2022-12-07T04:11:45;20.73;;;11.48;;
23260;SDS011;11799;47.740;-3.390;2022-12-07T04:14:11;22.83;;;11.85;;
23260;SDS011;11799;47.740;-3.390;2022-12-07T04:16:47;21.17;;;11.13;;
23260;SDS011;11799;47.740;-3.390;2022-12-07T04:19:17;19.77;;;10.48;;
23260;SDS011;11799;47.740;-3.390;2022-12-07T04:21:44;23.13;;;11.52;;
23260;SDS011;11799;47.740;-3.390;2022-12-07T04:24:11;19.15;;;11.15;;
23260;SDS011;11799;47.740;-3.390;2022-12-07T04:26:38;18.42;;;10.43;;
23260;SDS011;11799;47.740;-3.390;2022-12-07T04:29:04;19.75;;;10.55;;
23260;SDS011;11799;47.740;-3.390;2022-12-07T04:31:29;19.27;;;10.80;;
23260;SDS011;11799;47.740;-3.390;2022-12-07T04:33:55;20.00;;;10.82;;
23260;SDS011;11799;47.740;-3.390;2022-12-07T04:36:21;19.58;;;10.15;;
23260;SDS011;11799;47.740;-3.390;2022-12-07T04:38:46;16.08;;;9.52;;
23260;SDS011;11799;47.740;-3.390;2022-12-07T04:41:12;16.85;;;9.85;;
23260;SDS011;11799;47.740;-3.390;2022-12-07T04:43:38;19.70;;;10.93;;
23260;SDS011;11799;47.740;-3.390;2022-12-07T04:46:04;21.15;;;11.02;;
23260;SDS011;11799;47.740;-3.390;2022-12-07T04:48:30;20.50;;;10.90;;
23260;SDS011;11799;47.740;-3.390;2022-12-07T04:50:56;21.55;;;11.07;;
23260;SDS011;11799;47.740;-3.390;2022-12-07T04:53:21;20.27;;;10.80;;
23260;SDS011;11799;47.740;-3.390;2022-12-07T04:55:47;22.08;;;11.27;;
23260;SDS011;11799;47.740;-3.390;2022-12-07T04:58:13;20.92;;;11.27;;
23260;SDS011;11799;47.740;-3.390;2022-12-07T05:00:39;19.70;;;10.85;;
23260;SDS011;11799;47.740;-3.390;2022-12-07T05:03:06;18.17;;;10.63;;
23260;SDS011;11799;47.740;-3.390;2022-12-07T05:05:32;18.08;;;10.27;;
23260;SDS011;11799;47.740;-3.390;2022-12-07T05:07:58;19.52;;;11.32;;
23260;SDS011;11799;47.740;-3.390;2022-12-07T05:10:23;20.65;;;11.35;;
23260;SDS011;11799;47.740;-3.390;2022-12-07T05:12:49;20.65;;;11.55;;
23260;SDS011;11799;47.740;-3.390;2022-12-07T05:15:15;22.25;;;11.73;;
23260;SDS011;11799;47.740;-3.390;2022-12-07T05:17:41;19.92;;;11.15;;
23260;SDS011;11799;47.740;-3.390;2022-12-07T05:20:07;16.65;;;10.05;;
23260;SDS011;11799;47.740;-3.390;2022-12-07T05:22:34;17.63;;;10.63;;
23260;SDS011;11799;47.740;-3.390;2022-12-07T05:24:59;20.45;;;11.13;;
23260;SDS011;11799;47.740;-3.390;2022-12-07T05:27:25;22.75;;;11.40;;
23260;SDS011;11799;47.740;-3.390;2022-12-07T05:29:51;29.50;;;11.68;;
23260;SDS011;11799;47.740;-3.390;2022-12-07T05:32:17;19.88;;;11.27;;
23260;SDS011;11799;47.740;-3.390;2022-12-07T05:34:43;19.20;;;11.40;;
23260;SDS011;11799;47.740;-3.390;2022-12-07T05:37:08;20.50;;;10.70;;
23260;SDS011;11799;47.740;-3.390;2022-12-07T05:39:34;18.05;;;11.18;;
23260;SDS011;11799;47.740;-3.390;2022-12-07T05:41:59;16.95;;;10.43;;
23260;SDS011;11799;47.740;-3.390;2022-12-07T05:44:37;19.55;;;10.80;;
23260;SDS011;11799;47.740;-3.390;2022-12-07T05:47:03;21.77;;;11.60;;
23260;SDS011;11799;47.740;-3.390;2022-12-07T05:49:29;20.70;;;11.23;;
23260;SDS011;11799;47.740;-3.390;2022-12-07T05:51:55;21.65;;;11.48;;
23260;SDS011;11799;47.740;-3.390;2022-12-07T05:54:21;19.95;;;11.45;;
23260;SDS011;11799;47.740;-3.390;2022-12-07T05:56:46;20.65;;;11.85;;
23260;SDS011;11799;47.740;-3.390;2022-12-07T05:59:12;20.08;;;11.63;;
23260;SDS011;11799;47.740;-3.390;2022-12-07T06:02:08;21.00;;;10.98;;
23260;SDS011;11799;47.740;-3.390;2022-12-07T06:04:41;26.70;;;13.18;;
23260;SDS011;11799;47.740;-3.390;2022-12-07T06:07:09;19.70;;;11.77;;
23260;SDS011;11799;47.740;-3.390;2022-12-07T06:09:36;21.55;;;12.57;;
23260;SDS011;11799;47.740;-3.390;2022-12-07T06:12:01;25.52;;;13.18;;
23260;SDS011;11799;47.740;-3.390;2022-12-07T06:14:47;21.35;;;11.93;;
23260;SDS011;11799;47.740;-3.390;2022-12-07T06:17:13;24.02;;;12.10;;
23260;SDS011;11799;47.740;-3.390;2022-12-07T06:19:39;22.90;;;11.60;;
23260;SDS011;11799;47.740;-3.390;2022-12-07T06:22:05;20.85;;;10.98;;
23260;SDS011;11799;47.740;-3.390;2022-12-07T06:24:31;19.40;;;11.82;;
23260;SDS011;11799;47.740;-3.390;2022-12-07T06:26:58;21.52;;;12.20;;
23260;SDS011;11799;47.740;-3.390;2022-12-07T06:29:24;21.73;;;11.82;;
23260;SDS011;11799;47.740;-3.390;2022-12-07T06:31:49;21.58;;;12.40;;
23260;SDS011;11799;47.740;-3.390;2022-12-07T06:34:16;23.65;;;11.98;;
23260;SDS011;11799;47.740;-3.390;2022-12-07T06:36:43;22.23;;;12.45;;
23260;SDS011;11799;47.740;-3.390;2022-12-07T06:39:09;18.45;;;11.00;;
23260;SDS011;11799;47.740;-3.390;2022-12-07T06:41:36;21.45;;;11.75;;
23260;SDS011;11799;47.740;-3.390;2022-12-07T06:44:02;20.38;;;11.00;;
23260;SDS011;11799;47.740;-3.390;2022-12-07T06:46:29;20.48;;;12.10;;
23260;SDS011;11799;47.740;-3.390;2022-12-07T06:48:55;23.33;;;12.02;;
23260;SDS011;11799;47.740;-3.390;2022-12-07T06:51:21;21.50;;;11.32;;
23260;SDS011;11799;47.740;-3.390;2022-12-07T06:53:46;23.75;;;12.13;;
23260;SDS011;11799;47.740;-3.390;2022-12-07T06:56:12;22.42;;;12.10;;
23260;SDS011;11799;47.740;-3.390;2022-12-07T06:58:38;20.77;;;11.55;;
23260;SDS011;11799;47.740;-3.390;2022-12-07T07:01:08;18.50;;;11.07;;
23260;SDS011;11799;47.740;-3.390;2022-12-07T07:03:38;23.90;;;11.82;;
23260;SDS011;11799;47.740;-3.390;2022-12-07T07:06:04;21.00;;;12.02;;
23260;SDS011;11799;47.740;-3.390;2022-12-07T07:08:31;22.58;;;12.30;;
23260;SDS011;11799;47.740;-3.390;2022-12-07T07:10:56;21.95;;;12.25;;
23260;SDS011;11799;47.740;-3.390;2022-12-07T07:13:22;22.95;;;11.68;;
23260;SDS011;11799;47.740;-3.390;2022-12-07T07:15:48;22.98;;;11.73;;
23260;SDS011;11799;47.740;-3.390;2022-12-07T07:18:14;22.92;;;12.15;;
23260;SDS011;11799;47.740;-3.390;2022-12-07T07:20:39;20.80;;;12.50;;
23260;SDS011;11799;47.740;-3.390;2022-12-07T07:23:05;22.75;;;12.05;;
23260;SDS011;11799;47.740;-3.390;2022-12-07T07:25:31;26.48;;;11.98;;
23260;SDS011;11799;47.740;-3.390;2022-12-07T07:27:57;24.48;;;13.60;;
23260;SDS011;11799;47.740;-3.390;2022-12-07T07:30:23;26.08;;;11.88;;
23260;SDS011;11799;47.740;-3.390;2022-12-07T07:32:49;22.58;;;11.45;;
23260;SDS011;11799;47.740;-3.390;2022-12-07T07:35:14;23.38;;;12.95;;
23260;SDS011;11799;47.740;-3.390;2022-12-07T07:37:40;24.23;;;12.23;;
23260;SDS011;11799;47.740;-3.390;2022-12-07T07:40:07;22.55;;;12.65;;
23260;SDS011;11799;47.740;-3.390;2022-12-07T07:42:33;24.48;;;12.00;;
23260;SDS011;11799;47.740;-3.390;2022-12-07T07:44:59;25.58;;;13.65;;
23260;SDS011;11799;47.740;-3.390;2022-12-07T07:47:24;25.98;;;12.80;;
23260;SDS011;11799;47.740;-3.390;2022-12-07T07:49:50;23.02;;;11.90;;
23260;SDS011;11799;47.740;-3.390;2022-12-07T07:52:16;22.02;;;12.75;;
23260;SDS011;11799;47.740;-3.390;2022-12-07T07:54:41;20.20;;;11.88;;
23260;SDS011;11799;47.740;-3.390;2022-12-07T07:57:07;22.52;;;11.73;;
23260;SDS011;11799;47.740;-3.390;2022-12-07T07:59:32;22.67;;;11.60;;
23260;SDS011;11799;47.740;-3.390;2022-12-07T08:01:58;21.45;;;12.00;;
23260;SDS011;11799;47.740;-3.390;2022-12-07T08:04:24;24.63;;;12.32;;
23260;SDS011;11799;47.740;-3.390;2022-12-07T08:06:49;21.48;;;12.48;;
23260;SDS011;11799;47.740;-3.390;2022-12-07T08:09:15;20.58;;;11.48;;
23260;SDS011;11799;47.740;-3.390;2022-12-07T08:11:40;25.98;;;13.05;;
23260;SDS011;11799;47.740;-3.390;2022-12-07T08:14:06;21.83;;;11.85;;
23260;SDS011;11799;47.740;-3.390;2022-12-07T08:16:31;23.60;;;12.70;;
23260;SDS011;11799;47.740;-3.390;2022-12-07T08:18:57;21.20;;;11.50;;
23260;SDS011;11799;47.740;-3.390;2022-12-07T08:21:22;24.25;;;12.52;;
23260;SDS011;11799;47.740;-3.390;2022-12-07T08:23:48;20.05;;;11.13;;
23260;SDS011;11799;47.740;-3.390;2022-12-07T08:26:14;20.33;;;11.93;;
23260;SDS011;11799;47.740;-3.390;2022-12-07T08:28:41;22.98;;;12.32;;
23260;SDS011;11799;47.740;-3.390;2022-12-07T08:31:08;23.10;;;12.55;;
23260;SDS011;11799;47.740;-3.390;2022-12-07T08:33:36;22.15;;;12.38;;
23260;SDS011;11799;47.740;-3.390;2022-12-07T08:36:04;22.20;;;11.80;;
23260;SDS011;11799;47.740;-3.390;2022-12-07T08:38:31;22.58;;;11.30;;
23260;SDS011;11799;47.740;-3.390;2022-12-07T08:40:57;22.02;;;11.52;;
23260;SDS011;11799;47.740;-3.390;2022-12-07T08:43:24;21.73;;;11.57;;
23260;SDS011;11799;47.740;-3.390;2022-12-07T08:45:52;20.95;;;11.68;;
23260;SDS011;11799;47.740;-3.390;2022-12-07T08:48:27;22.27;;;12.32;;
23260;SDS011;11799;47.740;-3.390;2022-12-07T08:50:53;21.63;;;11.13;;
23260;SDS011;11799;47.740;-3.390;2022-12-07T08:53:18;22.35;;;11.75;;
23260;SDS011;11799;47.740;-3.390;2022-12-07T08:55:45;22.10;;;12.20;;
23260;SDS011;11799;47.740;-3.390;2022-12-07T08:58:11;21.05;;;11.93;;
23260;SDS011;11799;47.740;-3.390;2022-12-07T09:00:37;22.17;;;12.32;;
23260;SDS011;11799;47.740;-3.390;2022-12-07T09:03:02;20.48;;;11.90;;
23260;SDS011;11799;47.740;-3.390;2022-12-07T09:05:28;18.73;;;11.25;;
23260;SDS011;11799;47.740;-3.390;2022-12-07T09:07:55;22.38;;;11.73;;
23260;SDS011;11799;47.740;-3.390;2022-12-07T09:10:24;22.65;;;11.95;;
23260;SDS011;11799;47.740;-3.390;2022-12-07T09:12:49;26.20;;;11.75;;
23260;SDS011;11799;47.740;-3.390;2022-12-07T09:15:15;22.33;;;12.43;;
23260;SDS011;11799;47.740;-3.390;2022-12-07T09:17:41;22.42;;;11.60;;
23260;SDS011;11799;47.740;-3.390;2022-12-07T09:20:06;24.23;;;11.73;;
23260;SDS011;11799;47.740;-3.390;2022-12-07T09:22:32;28.40;;;17.08;;
23260;SDS011;11799;47.740;-3.390;2022-12-07T09:24:58;25.65;;;14.23;;
23260;SDS011;11799;47.740;-3.390;2022-12-07T09:27:25;28.88;;;19.83;;
23260;SDS011;11799;47.740;-3.390;2022-12-07T09:29:51;29.00;;;20.63;;
23260;SDS011;11799;47.740;-3.390;2022-12-07T09:32:16;21.73;;;15.60;;
23260;SDS011;11799;47.740;-3.390;2022-12-07T09:34:42;31.15;;;19.58;;
23260;SDS011;11799;47.740;-3.390;2022-12-07T09:37:07;77.32;;;53.35;;
23260;SDS011;11799;47.740;-3.390;2022-12-07T09:39:33;27.50;;;16.48;;
23260;SDS011;11799;47.740;-3.390;2022-12-07T09:41:59;34.78;;;25.77;;
23260;SDS011;11799;47.740;-3.390;2022-12-07T09:44:29;28.15;;;20.08;;
23260;SDS011;11799;47.740;-3.390;2022-12-07T09:46:54;22.42;;;15.15;;
23260;SDS011;11799;47.740;-3.390;2022-12-07T09:49:22;25.80;;;17.23;;
23260;SDS011;11799;47.740;-3.390;2022-12-07T09:51:59;87.93;;;63.58;;
23260;SDS011;11799;47.740;-3.390;2022-12-07T09:54:27;70.43;;;48.30;;
23260;SDS011;11799;47.740;-3.390;2022-12-07T09:56:55;99.03;;;68.95;;
23260;SDS011;11799;47.740;-3.390;2022-12-07T09:59:20;78.63;;;56.47;;
23260;SDS011;11799;47.740;-3.390;2022-12-07T10:01:47;68.05;;;48.17;;
23260;SDS011;11799;47.740;-3.390;2022-12-07T10:04:22;38.63;;;26.63;;
23260;SDS011;11799;47.740;-3.390;2022-12-07T10:06:50;54.22;;;38.45;;
23260;SDS011;11799;47.740;-3.390;2022-12-07T10:09:17;34.00;;;28.58;;
23260;SDS011;11799;47.740;-3.390;2022-12-07T10:11:57;25.95;;;22.65;;
23260;SDS011;11799;47.740;-3.390;2022-12-07T10:14:35;30.58;;;27.48;;
23260;SDS011;11799;47.740;-3.390;2022-12-07T10:25:40;23.70;;;18.98;;
23260;SDS011;11799;47.740;-3.390;2022-12-07T10:30:33;18.02;;;13.05;;
23260;SDS011;11799;47.740;-3.390;2022-12-07T10:33:32;19.02;;;14.35;;
23260;SDS011;11799;47.740;-3.390;2022-12-07T10:36:16;21.27;;;13.50;;
23260;SDS011;11799;47.740;-3.390;2022-12-07T10:39:02;24.95;;;19.02;;
23260;SDS011;11799;47.740;-3.390;2022-12-07T10:41:35;16.33;;;12.85;;
23260;SDS011;11799;47.740;-3.390;2022-12-07T10:44:26;21.08;;;17.70;;
23260;SDS011;11799;47.740;-3.390;2022-12-07T10:58:01;17.92;;;12.88;;
23260;SDS011;11799;47.740;-3.390;2022-12-07T11:00:41;13.70;;;9.57;;
23260;SDS011;11799;47.740;-3.390;2022-12-07T11:17:18;11.23;;;6.82;;
23260;SDS011;11799;47.740;-3.390;2022-12-07T11:22:57;11.20;;;6.30;;
23260;SDS011;11799;47.740;-3.390;2022-12-07T11:33:37;9.77;;;7.72;;
23260;SDS011;11799;47.740;-3.390;2022-12-07T11:36:28;11.88;;;7.10;;
23260;SDS011;11799;47.740;-3.390;2022-12-07T11:39:26;18.98;;;14.25;;
23260;SDS011;11799;47.740;-3.390;2022-12-07T11:42:03;11.70;;;8.07;;
23260;SDS011;11799;47.740;-3.390;2022-12-07T11:53:09;16.38;;;13.30;;
23260;SDS011;11799;47.740;-3.390;2022-12-07T11:56:00;11.73;;;8.77;;
23260;SDS011;11799;47.740;-3.390;2022-12-07T12:04:00;13.27;;;10.13;;
23260;SDS011;11799;47.740;-3.390;2022-12-07T12:06:42;13.82;;;10.10;;
23260;SDS011;11799;47.740;-3.390;2022-12-07T12:09:14;13.23;;;9.65;;
23260;SDS011;11799;47.740;-3.390;2022-12-07T12:17:39;12.35;;;7.57;;
23260;SDS011;11799;47.740;-3.390;2022-12-07T12:22:45;9.82;;;6.93;;
23260;SDS011;11799;47.740;-3.390;2022-12-07T12:25:26;12.80;;;7.47;;
23260;SDS011;11799;47.740;-3.390;2022-12-07T12:27:55;9.30;;;6.85;;
23260;SDS011;11799;47.740;-3.390;2022-12-07T12:30:31;10.07;;;6.95;;
23260;SDS011;11799;47.740;-3.390;2022-12-07T12:33:04;10.68;;;6.38;;
23260;SDS011;11799;47.740;-3.390;2022-12-07T12:35:38;12.00;;;7.20;;
23260;SDS011;11799;47.740;-3.390;2022-12-07T12:38:27;10.40;;;6.57;;
23260;SDS011;11799;47.740;-3.390;2022-12-07T12:40:56;9.23;;;6.05;;
23260;SDS011;11799;47.740;-3.390;2022-12-07T12:47:37;11.77;;;6.75;;
23260;SDS011;11799;47.740;-3.390;2022-12-07T12:51:46;9.68;;;6.05;;
23260;SDS011;11799;47.740;-3.390;2022-12-07T12:54:21;8.90;;;6.68;;
23260;SDS011;11799;47.740;-3.390;2022-12-07T13:02:20;11.15;;;7.63;;
23260;SDS011;11799;47.740;-3.390;2022-12-07T13:04:54;10.05;;;6.50;;
23260;SDS011;11799;47.740;-3.390;2022-12-07T13:15:49;10.75;;;6.93;;
23260;SDS011;11799;47.740;-3.390;2022-12-07T13:23:26;13.02;;;7.82;;
23260;SDS011;11799;47.740;-3.390;2022-12-07T13:28:40;9.02;;;6.32;;
23260;SDS011;11799;47.740;-3.390;2022-12-07T13:33:47;18.63;;;10.98;;
23260;SDS011;11799;47.740;-3.390;2022-12-07T13:36:20;12.20;;;7.38;;
23260;SDS011;11799;47.740;-3.390;2022-12-07T13:38:58;17.02;;;10.98;;
23260;SDS011;11799;47.740;-3.390;2022-12-07T13:41:28;21.92;;;14.80;;
23260;SDS011;11799;47.740;-3.390;2022-12-07T13:44:16;10.25;;;6.97;;
23260;SDS011;11799;47.740;-3.390;2022-12-07T13:49:25;22.15;;;14.50;;
23260;SDS011;11799;47.740;-3.390;2022-12-07T13:52:07;14.55;;;8.82;;
23260;SDS011;11799;47.740;-3.390;2022-12-07T13:54:48;10.32;;;5.30;;
23260;SDS011;11799;47.740;-3.390;2022-12-07T13:57:24;13.27;;;9.75;;
23260;SDS011;11799;47.740;-3.390;2022-12-07T13:59:51;11.35;;;5.63;;
23260;SDS011;11799;47.740;-3.390;2022-12-07T14:02:20;13.57;;;7.88;;
23260;SDS011;11799;47.740;-3.390;2022-12-07T14:04:51;10.82;;;6.07;;
23260;SDS011;11799;47.740;-3.390;2022-12-07T14:07:27;10.32;;;5.68;;
23260;SDS011;11799;47.740;-3.390;2022-12-07T14:10:00;9.25;;;6.78;;
23260;SDS011;11799;47.740;-3.390;2022-12-07T14:12:28;7.70;;;4.40;;
23260;SDS011;11799;47.740;-3.390;2022-12-07T14:14:55;6.82;;;4.32;;
23260;SDS011;11799;47.740;-3.390;2022-12-07T14:17:22;5.85;;;4.18;;
23260;SDS011;11799;47.740;-3.390;2022-12-07T14:19:51;6.75;;;3.78;;
23260;SDS011;11799;47.740;-3.390;2022-12-07T14:22:21;5.88;;;4.15;;
23260;SDS011;11799;47.740;-3.390;2022-12-07T14:24:47;7.63;;;5.05;;
23260;SDS011;11799;47.740;-3.390;2022-12-07T14:27:17;6.40;;;4.93;;
23260;SDS011;11799;47.740;-3.390;2022-12-07T14:29:47;7.20;;;4.97;;
23260;SDS011;11799;47.740;-3.390;2022-12-07T14:32:24;7.30;;;4.43;;
23260;SDS011;11799;47.740;-3.390;2022-12-07T14:37:26;6.07;;;4.15;;
23260;SDS011;11799;47.740;-3.390;2022-12-07T14:39:53;49.80;;;25.08;;
23260;SDS011;11799;47.740;-3.390;2022-12-07T14:42:19;71.63;;;34.20;;
23260;SDS011;11799;47.740;-3.390;2022-12-07T14:44:47;41.10;;;22.52;;
23260;SDS011;11799;47.740;-3.390;2022-12-07T14:47:13;57.40;;;32.88;;
23260;SDS011;11799;47.740;-3.390;2022-12-07T14:49:38;83.78;;;47.42;;
23260;SDS011;11799;47.740;-3.390;2022-12-07T14:52:05;59.92;;;35.47;;
23260;SDS011;11799;47.740;-3.390;2022-12-07T14:54:36;84.88;;;51.25;;
23260;SDS011;11799;47.740;-3.390;2022-12-07T14:57:02;172.23;;;96.93;;
23260;SDS011;11799;47.740;-3.390;2022-12-07T14:59:28;90.65;;;58.45;;
23260;SDS011;11799;47.740;-3.390;2022-12-07T15:01:53;40.30;;;25.13;;
23260;SDS011;11799;47.740;-3.390;2022-12-07T15:04:19;26.52;;;17.73;;
23260;SDS011;11799;47.740;-3.390;2022-12-07T15:06:54;32.35;;;20.30;;
23260;SDS011;11799;47.740;-3.390;2022-12-07T15:09:24;24.95;;;17.85;;
23260;SDS011;11799;47.740;-3.390;2022-12-07T15:11:50;22.42;;;14.77;;
23260;SDS011;11799;47.740;-3.390;2022-12-07T15:14:16;13.65;;;10.27;;
23260;SDS011;11799;47.740;-3.390;2022-12-07T15:16:41;30.73;;;20.75;;
23260;SDS011;11799;47.740;-3.390;2022-12-07T15:19:15;28.30;;;18.85;;
23260;SDS011;11799;47.740;-3.390;2022-12-07T15:21:48;16.38;;;10.32;;
23260;SDS011;11799;47.740;-3.390;2022-12-07T15:24:14;25.58;;;17.00;;
23260;SDS011;11799;47.740;-3.390;2022-12-07T15:26:40;14.70;;;10.23;;
23260;SDS011;11799;47.740;-3.390;2022-12-07T15:29:06;13.25;;;10.52;;
23260;SDS011;11799;47.740;-3.390;2022-12-07T15:31:32;10.27;;;5.90;;
23260;SDS011;11799;47.740;-3.390;2022-12-07T15:33:59;20.75;;;14.90;;
23260;SDS011;11799;47.740;-3.390;2022-12-07T15:36:26;27.85;;;17.17;;
23260;SDS011;11799;47.740;-3.390;2022-12-07T15:38:54;13.10;;;7.07;;
23260;SDS011;11799;47.740;-3.390;2022-12-07T15:41:20;8.25;;;5.78;;
23260;SDS011;11799;47.740;-3.390;2022-12-07T15:43:46;9.27;;;5.60;;
23260;SDS011;11799;47.740;-3.390;2022-12-07T15:46:31;10.35;;;7.30;;
23260;SDS011;11799;47.740;-3.390;2022-12-07T15:48:58;9.95;;;6.57;;
23260;SDS011;11799;47.740;-3.390;2022-12-07T15:51:24;13.60;;;8.35;;
23260;SDS011;11799;47.740;-3.390;2022-12-07T15:53:50;13.10;;;8.40;;
23260;SDS011;11799;47.740;-3.390;2022-12-07T15:56:16;11.98;;;7.88;;
23260;SDS011;11799;47.740;-3.390;2022-12-07T15:58:41;10.95;;;6.70;;
23260;SDS011;11799;47.740;-3.390;2022-12-07T16:01:14;11.23;;;7.18;;
23260;SDS011;11799;47.740;-3.390;2022-12-07T16:03:41;9.18;;;6.28;;
23260;SDS011;11799;47.740;-3.390;2022-12-07T16:06:07;10.30;;;6.97;;
23260;SDS011;11799;47.740;-3.390;2022-12-07T16:08:33;10.02;;;6.63;;
23260;SDS011;11799;47.740;-3.390;2022-12-07T16:10:59;10.32;;;6.72;;
23260;SDS011;11799;47.740;-3.390;2022-12-07T16:13:26;8.50;;;6.32;;
23260;SDS011;11799;47.740;-3.390;2022-12-07T16:15:51;12.32;;;7.20;;
23260;SDS011;11799;47.740;-3.390;2022-12-07T16:18:17;10.98;;;6.53;;
23260;SDS011;11799;47.740;-3.390;2022-12-07T16:20:42;9.77;;;6.30;;
23260;SDS011;11799;47.740;-3.390;2022-12-07T16:23:08;10.95;;;6.75;;
23260;SDS011;11799;47.740;-3.390;2022-12-07T16:25:33;11.20;;;7.47;;
23260;SDS011;11799;47.740;-3.390;2022-12-07T16:27:59;9.18;;;6.18;;
23260;SDS011;11799;47.740;-3.390;2022-12-07T16:30:25;10.40;;;6.85;;
23260;SDS011;11799;47.740;-3.390;2022-12-07T16:32:50;13.27;;;8.80;;
23260;SDS011;11799;47.740;-3.390;2022-12-07T16:35:16;23.38;;;12.85;;
23260;SDS011;11799;47.740;-3.390;2022-12-07T16:37:42;22.65;;;15.05;;
23260;SDS011;11799;47.740;-3.390;2022-12-07T16:40:08;25.20;;;13.80;;
23260;SDS011;11799;47.740;-3.390;2022-12-07T16:42:35;19.55;;;12.07;;
23260;SDS011;11799;47.740;-3.390;2022-12-07T16:45:01;18.92;;;12.50;;
23260;SDS011;11799;47.740;-3.390;2022-12-07T16:47:28;21.83;;;12.35;;
23260;SDS011;11799;47.740;-3.390;2022-12-07T16:49:53;27.70;;;17.15;;
23260;SDS011;11799;47.740;-3.390;2022-12-07T16:52:19;26.27;;;16.25;;
23260;SDS011;11799;47.740;-3.390;2022-12-07T16:54:45;29.55;;;17.20;;